Tiempo atmosférico en la estación meteorológica de Hervas, Cáceres (738 m.)



Fecha
DESCASC
Temp. máxima en grados centígrados (hora)
DESCASC
Temp. mínima en grados centígrados (hora)
DESCASC
Temp. media en grados centígrados
DESCASC
Racha de viento máxima en m/sg (hora)
DESCASC
Velocidad máxima media en intervalos de 10 minutos(hora)
DESCASC
Precipitaciones diarias en mm
DESCASC
Precipitaciones de 00:00 a 06:00 en mm
DESCASC
Precipitaciones de 06:00 a 12:00 en mm
DESCASC
Precipitaciones de 12:00 a 18:00 en mm
DESCASC
Precipitaciones de 18:00 a 24:00 en mm
DESCASC
18-04-2019 12.8 (15:40) 6.7 (08:30) 9.8 13.06 (00:10) 6.39 (00:30) 17 6.4 0 9.6 1
17-04-2019 18.3 (00:00) 8.8 (20:40) 13.5 24.72 (02:40) 13.33 (07:20) 12.4 0 0 0 12.4
16-04-2019 18.9 (18:40) 5.1 (00:00) 12 15.28 (23:50) 8.33 (23:50) 0 0 0 0 0
15-04-2019 17.4 (09:20) 10.1 (00:00) 13.8 12.78 (10:10) 6.11 (06:30) 1 0 0 0.8 0.2
14-04-2019 19.8 (19:20) 9.1 (00:00) 14.4 6.39 (15:40) 3.06 (14:50) 0 0 0 0 0
13-04-2019 19.3 (18:00) 6.2 (00:00) 12.7 7.22 (15:00) 3.61 (15:40) 0 0 0 0 0
12-04-2019 17.3 (19:00) 3.5 (00:00) 10.4 8.61 (17:20) 4.44 (14:00) 0 0 0 0 0
11-04-2019 14.8 (16:50) 2.7 (00:00) 8.8 9.72 (15:10) 5.28 (14:50) 0.2 0 0 0.2 0
10-04-2019 13.8 (18:30) 4.6 (00:00) 9.2 12.5 (19:00) 7.22 (19:00) 4.6 1.2 0.8 0 2.6
09-04-2019 11.2 (16:30) 6 (00:00) 8.6 9.17 (12:00) 3.89 (11:20) 4.8 0 3 1 0.8
08-04-2019 13.6 (17:00) 7.4 (00:00) 10.5 9.72 (18:50) 4.17 (15:40) 5.6 5 0 0.2 0.4
07-04-2019 10.1 (23:10) 3.9 (00:00) 7 8.61 (23:00) 3.61 (23:10) 2.1 1.1 0.2 0.4 0.4
06-04-2019 7.7 (16:10) 2.5 (00:00) 5.1 10.83 (17:50) 4.72 (18:10) 3.4 0 2.2 0.8 0.4
05-04-2019 6.9 (17:20) 1.5 (00:00) 4.2 10.83 (21:20) 4.17 (14:30) 20.8 5.6 7.8 1.6 5.8
04-04-2019 11.9 (17:10) -1 (-00:0) 5.4 8.89 (16:20) 4.44 (16:20) 5.2 0 0 0 5.2
03-04-2019 12.8 (16:50) 4.6 (00:00) 8.7 10.83 (14:10) 5.28 (12:50) 0 0 0 0 0
02-04-2019 17.5 (16:50) 6.4 (00:00) 12 8.06 (15:00) 3.89 (17:00) 0 0 0 0 0
01-04-2019 14 (18:00) 5.9 (00:00) 10 7.22 (12:10) 3.89 (20:20) 3.8 0 0 2 1.8
31-03-2019 17.8 (16:30) 7.6 (00:00) 12.7 7.78 (15:10) 4.44 (15:40) 0 0 0 0 0
30-03-2019 17.8 (16:30) 5.7 (00:00) 11.7 6.39 (16:40) 3.61 (16:20) 0 0 0 0 0
29-03-2019 17.9 (16:50) 6.3 (00:00) 12.1 8.61 (18:40) 5 (18:40) 0 0 0 0 0
28-03-2019 18 (16:00) 5.5 (00:00) 11.8 6.39 (14:40) 3.33 (08:10) 0 0 0 0 0
27-03-2019 18.1 (17:10) 5.2 (00:00) 11.7 6.67 (03:00) 4.17 (22:30) 0 0 0 0 0
26-03-2019 21.2 (18:00) 4.5 (00:00) 12.9 8.33 (18:30) 4.44 (18:30) 0 0 0 0 0
25-03-2019 19.6 (14:30) 7.8 (00:00) 13.7 11.94 (17:30) 6.67 (16:00) 0 0 0 0 0
24-03-2019 20.3 (15:50) 8.1 (00:00) 14.2 10.56 (17:00) 5.83 (16:50) 0 0 0 0 0
23-03-2019 18.1 (18:10) 5.8 (00:00) 12 11.11 (23:20) 6.67 (23:20) 0 0 0 0 0
22-03-2019 16.2 (16:40) 4.9 (00:00) 10.6 5.83 (14:10) 3.61 (20:10) 0 0 0 0 0
21-03-2019 14.6 (17:10) 3.6 (00:00) 9.1 6.67 (20:50) 3.89 (20:10) 0 0 0 0 0

Gráficas

Temp. máximas Temp. mínimas Temp. medias Precipitaciones Rachas de viento máximas Velocidades máximas media en intervalos de 10 minutos

Datos horarios

Fecha y hora oficial Temperatura (ºC) Velocidad del viento (km/h) Dirección del viento Racha (km/h) Dirección de racha Precipitación (mm) Presión (hPa) Tendencia (hPa) Humedad (%)
2019-04-19 23:00:00 10.7 5 Sur 10 Sudeste 0 -- -- 86
2019-04-19 22:00:00 11.4 6 Sudeste 14 Este 0 -- -- 86
2019-04-19 21:00:00 11.6 4 Sudeste 5 Sur 0 -- -- 89
2019-04-19 20:00:00 12.1 0 Calma 8 Oeste 0 -- -- 85
2019-04-19 19:00:00 12.5 3 Oeste 12 Oeste 0.4 -- -- 83
2019-04-19 18:00:00 12.8 3 Oeste 9 Noroeste 0 -- -- 83
2019-04-19 17:00:00 12.7 4 Noroeste 12 Noroeste 0.2 -- -- 83
2019-04-19 16:00:00 12.2 3 Sudoeste 8 Noroeste 0.8 -- -- 85
2019-04-19 15:00:00 12.5 3 Nordeste 10 Sudeste 1.8 -- -- 78
2019-04-19 14:00:00 11.7 3 Sur 9 Noroeste 0.4 -- -- 83
2019-04-19 13:00:00 12 3 Sudoeste 13 Oeste 0.2 -- -- 80
2019-04-19 12:00:00 11.3 5 Noroeste 9 Noroeste 0 -- -- 83
2019-04-19 11:00:00 10.1 3 Oeste 8 Noroeste 0 -- -- 86
2019-04-19 10:00:00 9.5 6 Oeste 11 Oeste 0 -- -- 87
2019-04-19 09:00:00 7.4 3 Sudeste 11 Sur 0 -- -- 96
2019-04-19 08:00:00 6.1 6 Sur 9 Sur 0 -- -- 97
2019-04-19 07:00:00 7.1 7 Sur 10 Sur 0 -- -- 93
2019-04-19 06:00:00 7.5 4 Sudeste 9 Sur 0 -- -- 95
2019-04-19 05:00:00 7.6 4 Sudeste 6 Sur 0 -- -- 97
2019-04-19 04:00:00 7.8 5 Sudeste 10 Sur 0 -- -- 95
2019-04-19 03:00:00 7.7 6 Sur 9 Sur 0 -- -- 94
2019-04-19 02:00:00 7.4 4 Sudeste 12 Sur 0 -- -- 96
2019-04-19 01:00:00 6.7 7 Sudeste 14 Sur 0 -- -- 95
2019-04-19 00:00:00 7.5 7 Sur 10 Sur 0 -- -- 93
2019-04-18 23:00:00 7.8 5 Sudeste 12 Este 0.2 -- -- 93
2019-04-18 22:00:00 8.5 5 Sudeste 20 Nordeste 0.8 -- -- 94
2019-04-18 21:00:00 9.6 3 Sudeste 7 Noroeste 0 -- -- 93
2019-04-18 20:00:00 11.5 6 Noroeste 9 Noroeste 0 -- -- 84
2019-04-18 19:00:00 10.6 3 Oeste 5 Sur 0 -- -- 94
2019-04-18 18:00:00 9.6 3 Sur 6 Sudoeste 0.2 -- -- 93
2019-04-18 17:00:00 8.9 6 Este 20 Sur 9 -- -- 90
2019-04-18 16:00:00 11.9 6 Este 19 Este 0.4 -- -- 82
2019-04-18 15:00:00 11.9 5 Oeste 9 Oeste 0 -- -- 77
2019-04-18 14:00:00 12 3 Sudeste 10 Noroeste 0 -- -- 75
2019-04-18 13:00:00 10.9 3 Oeste 6 Noroeste 0 -- -- 82
2019-04-18 12:00:00 10.3 0 Calma 5 Oeste 0 -- -- 85
2019-04-18 11:00:00 9.4 3 Noroeste 5 Oeste 0 -- -- 92
2019-04-18 10:00:00 9 3 Noroeste 6 Noroeste 0 -- -- 93
2019-04-18 09:00:00 7.4 3 Sur 8 Este 0 -- -- 99
2019-04-18 08:00:00 7.1 4 Sudeste 8 Sudeste 0 -- -- 97
2019-04-18 07:00:00 7.9 3 Nordeste 5 Este 0 -- -- 99
2019-04-18 06:00:00 7.9 0 Calma 10 Norte 0.2 -- -- 99
2019-04-18 05:00:00 8.2 2 Sur 6 Noroeste 0 -- -- 99
2019-04-18 04:00:00 8.3 2 Noroeste 18 Sudoeste 0.2 -- -- 99
2019-04-18 03:00:00 8.6 6 Sudoeste 17 Sur 1 -- -- 92
2019-04-18 02:00:00 9.2 11 Sur 39 Sur 1.2 -- -- 85
2019-04-18 01:00:00 9.6 17 Sur 47 Sur 3.8 -- -- 85
2019-04-18 00:00:00 10.1 20 Sur 52 Sur 3.6 -- -- 81
2019-04-17 23:00:00 10 24 Sur 48 Sur 2.4 -- -- 84
2019-04-17 22:00:00 9.2 4 Sudoeste 21 Sudoeste 1.8 -- -- 91
2019-04-17 21:00:00 8.8 5 Noroeste 39 Oeste 3.2 -- -- 99
2019-04-17 20:00:00 10.1 12 Oeste 56 Oeste 1.4 -- -- 92
2019-04-17 19:00:00 13.8 6 Norte 62 Sudeste 0 -- -- 82
2019-04-17 18:00:00 16.5 19 Sudeste 49 Sudeste 0 -- -- 52
2019-04-17 17:00:00 16.9 17 Sudeste 56 Sudeste 0 -- -- 51
2019-04-17 16:00:00 16.9 14 Sudeste 59 Sudeste 0 -- -- 51
2019-04-17 15:00:00 16.6 23 Sudeste 66 Sudeste 0 -- -- 48
2019-04-17 14:00:00 16.3 28 Sudeste 63 Este 0 -- -- 47
2019-04-17 13:00:00 16.4 33 Sudeste 80 Sudeste 0 -- -- 45
2019-04-17 12:00:00 16.1 35 Sudeste 68 Sudeste 0 -- -- 45
2019-04-17 11:00:00 16.1 30 Sudeste 83 Este 0 -- -- 48
2019-04-17 10:00:00 15.6 31 Sudeste 75 Sur 0 -- -- 50
2019-04-17 09:00:00 14.7 28 Sudeste 65 Sur 0 -- -- 54
2019-04-17 08:00:00 14.9 40 Sudeste 78 Sudeste 0 -- -- 53
2019-04-17 07:00:00 15.6 42 Sudeste 85 Este 0 -- -- 50
2019-04-17 06:00:00 15.6 39 Sudeste 72 Sudeste 0 -- -- 50
2019-04-17 05:00:00 15.7 30 Sudeste 63 Sudeste 0 -- -- 54
2019-04-17 04:00:00 16.2 32 Sudeste 66 Sudeste 0 -- -- 46
2019-04-17 03:00:00 16.4 27 Sudeste 89 Sudeste 0 -- -- 45
2019-04-17 02:00:00 16.9 28 Sudeste 67 Sur 0 -- -- 41
2019-04-17 01:00:00 17.6 34 Sudeste 68 Sudeste 0 -- -- 39
2019-04-17 00:00:00 18.3 28 Sudeste 55 Sudeste 0 -- -- 39
2019-04-16 23:00:00 17.9 26 Sudeste 52 Sudeste 0 -- -- 40
2019-04-16 22:00:00 17.5 24 Sudeste 39 Sudeste 0 -- -- 40
2019-04-16 21:00:00 17 5 Sur 36 Norte 0 -- -- 45
2019-04-16 20:00:00 17.6 11 Este 43 Sur 0 -- -- 39
2019-04-16 19:00:00 18.7 13 Nordeste 36 Sudeste 0 -- -- 35
2019-04-16 18:00:00 18.4 19 Sudeste 40 Sur 0 -- -- 35
2019-04-16 17:00:00 18.4 15 Sudeste 38 Sudeste 0 -- -- 33
2019-04-16 16:00:00 18.1 9 Sur 30 Sudeste 0 -- -- 32
2019-04-16 15:00:00 17.2 8 Norte 20 Nordeste 0 -- -- 50
2019-04-16 14:00:00 14.5 8 Noroeste 18 Noroeste 0 -- -- 68
2019-04-16 13:00:00 12.8 8 Noroeste 17 Oeste 0 -- -- 66
2019-04-16 12:00:00 12.3 9 Noroeste 18 Noroeste 0 -- -- 64
2019-04-16 11:00:00 12 6 Noroeste 10 Noroeste 0 -- -- 65
2019-04-16 10:00:00 11.8 2 Nordeste 8 Noroeste 0 -- -- 63
2019-04-16 09:00:00 7.4 4 Sudeste 14 Sur 0 -- -- 80
2019-04-16 08:00:00 5.4 11 Sur 15 Sur 0 -- -- 85
2019-04-16 07:00:00 5.2 8 Sudeste 15 Sur 0 -- -- 86
2019-04-16 06:00:00 5.7 6 Sudeste 12 Sur 0 -- -- 85
2019-04-16 05:00:00 5.5 7 Sudeste 14 Sur 0 -- -- 90
2019-04-16 04:00:00 5.9 6 Sudeste 15 Sur 0 -- -- 90
2019-04-16 03:00:00 6.5 6 Sudeste 11 Sur 0 -- -- 89
2019-04-16 02:00:00 7 5 Sudeste 10 Sur 0 -- -- 87
2019-04-16 01:00:00 9.3 0 Calma 16 Este 0 -- -- 81
2019-04-16 00:00:00 10.1 2 Sudeste 6 Sudeste 0 -- -- 89
2019-04-15 23:00:00 10.6 2 Oeste 5 Sudeste 0 -- -- 91
2019-04-15 22:00:00 10.5 4 Sudeste 11 Sudeste 0 -- -- 88
2019-04-15 21:00:00 11.1 5 Este 33 Oeste 0.2 -- -- 82
2019-04-15 20:00:00 13.1 4 Norte 10 Noroeste 0 -- -- 75
2019-04-15 19:00:00 13 5 Noroeste 10 Noroeste 0 -- -- 77
2019-04-15 18:00:00 11 8 Nordeste 20 Oeste 0.8 -- -- 89
2019-04-15 17:00:00 11.7 12 Oeste 39 Sudoeste 0 -- -- 79
2019-04-15 16:00:00 17.3 14 Oeste 35 Oeste 0 -- -- 49
2019-04-15 15:00:00 17.1 15 Oeste 38 Oeste 0 -- -- 56
2019-04-15 14:00:00 16 18 Oeste 35 Oeste 0 -- -- 68
2019-04-15 13:00:00 16.7 10 Oeste 37 Sur 0 -- -- 71
2019-04-15 12:00:00 16.9 12 Sudoeste 39 Sur 0 -- -- 69
2019-04-15 11:00:00 16.7 14 Sur 46 Sudoeste 0 -- -- 69
2019-04-15 10:00:00 17.3 8 Sudeste 38 Sur 0 -- -- 64
2019-04-15 09:00:00 16.9 5 Oeste 23 Sudeste 0 -- -- 68
2019-04-15 08:00:00 16.8 11 Sur 37 Sudeste 0 -- -- 66
2019-04-15 07:00:00 16.8 22 Sudeste 42 Sudeste 0 -- -- 67
2019-04-15 06:00:00 15.5 9 Sudeste 21 Sudeste 0 -- -- 74
2019-04-15 05:00:00 13.5 4 Sudoeste 15 Oeste 0 -- -- 84
2019-04-15 04:00:00 13.4 0 Calma 14 Sudeste 0 -- -- 83
2019-04-15 03:00:00 13.4 6 Sudeste 10 Sudeste 0 -- -- 83
2019-04-15 02:00:00 14.1 3 Sudeste 14 Sur 0 -- -- 79
2019-04-15 01:00:00 15.8 5 Sudoeste 17 Sur 0 -- -- 72
2019-04-15 00:00:00 14.7 4 Sudeste 13 Sudeste 0 -- -- 75
2019-04-14 23:00:00 14.3 6 Sudeste 12 Sudeste 0 -- -- 75
2019-04-14 22:00:00 15.1 5 Sudeste 10 Sur 0 -- -- 71
2019-04-14 21:00:00 16.7 4 Sur 8 Sur 0 -- -- 68
2019-04-14 20:00:00 18.7 2 Noroeste 21 Noroeste 0 -- -- 58
2019-04-14 19:00:00 19.6 9 Oeste 22 Oeste 0 -- -- 59
2019-04-14 18:00:00 19.2 5 Oeste 22 Noroeste 0 -- -- 61
2019-04-14 17:00:00 19.2 7 Noroeste 23 Oeste 0 -- -- 64
2019-04-14 16:00:00 19.1 11 Noroeste 23 Noroeste 0 -- -- 63
2019-04-14 15:00:00 18.6 9 Noroeste 22 Oeste 0 -- -- 64
2019-04-14 14:00:00 18.3 7 Noroeste 18 Oeste 0 -- -- 67
2019-04-14 13:00:00 17 6 Oeste 16 Noroeste 0 -- -- 69
2019-04-14 12:00:00 15.4 8 Oeste 21 Noroeste 0 -- -- 76
2019-04-14 11:00:00 14.4 4 Noroeste 10 Noroeste 0 -- -- 78
2019-04-14 10:00:00 13.9 5 Oeste 8 Noroeste 0 -- -- 75
2019-04-14 09:00:00 11.4 8 Sur 12 Sur 0 -- -- 80
2019-04-14 08:00:00 9.5 6 Sudeste 13 Sur 0 -- -- 81
2019-04-14 07:00:00 10.1 6 Sudeste 13 Sur 0 -- -- 80
2019-04-14 06:00:00 10.1 5 Sudeste 15 Sur 0 -- -- 79
2019-04-14 05:00:00 9.9 9 Sur 14 Sur 0 -- -- 77
2019-04-14 04:00:00 9.9 6 Sudeste 12 Sur 0 -- -- 73
2019-04-14 03:00:00 10.1 7 Sur 12 Sudeste 0 -- -- 74
2019-04-14 02:00:00 10.3 6 Sudeste 11 Sudeste 0 -- -- 77
2019-04-14 01:00:00 11 6 Sudeste 10 Sudeste 0 -- -- 73
2019-04-14 00:00:00 11.9 5 Sudeste 15 Sur 0 -- -- 66
2019-04-13 23:00:00 12.2 8 Sudeste 12 Sur 0 -- -- 58
2019-04-13 22:00:00 14.3 6 Sur 9 Sur 0 -- -- 53
2019-04-13 21:00:00 15.9 3 Oeste 22 Sudoeste 0 -- -- 47
2019-04-13 20:00:00 17.6 5 Oeste 18 Oeste 0 -- -- 45
2019-04-13 19:00:00 19.1 7 Oeste 26 Oeste 0 -- -- 41
2019-04-13 18:00:00 19.3 8 Noroeste 21 Noroeste 0 -- -- 37
2019-04-13 17:00:00 18.8 7 Oeste 20 Noroeste 0 -- -- 37
2019-04-13 16:00:00 18.1 9 Noroeste 25 Noroeste 0 -- -- 39
2019-04-13 15:00:00 17.8 13 Noroeste 26 Noroeste 0 -- -- 37
2019-04-13 14:00:00 17.3 7 Oeste 22 Oeste 0 -- -- 42
2019-04-13 13:00:00 16.4 5 Noroeste 17 Noroeste 0 -- -- 39
2019-04-13 12:00:00 15.8 7 Noroeste 13 Noroeste 0 -- -- 38
2019-04-13 11:00:00 14.3 4 Noroeste 8 Noroeste 0 -- -- 42
2019-04-13 10:00:00 12.2 0 Calma 8 Sudeste 0 -- -- 50
2019-04-13 09:00:00 8.3 6 Sur 12 Sur 0 -- -- 70
2019-04-13 08:00:00 7.5 6 Sudeste 11 Sur 0 -- -- 62
2019-04-13 07:00:00 7.2 8 Sudeste 12 Sur 0 -- -- 63
2019-04-13 06:00:00 6.6 8 Sudeste 13 Sur 0 -- -- 63
2019-04-13 05:00:00 6.9 9 Sur 15 Sur 0 -- -- 66
2019-04-13 04:00:00 7.2 7 Sudeste 18 Sur 0 -- -- 64
2019-04-13 03:00:00 7.5 10 Sudeste 17 Sur 0 -- -- 63
2019-04-13 02:00:00 8.1 7 Sudeste 13 Sur 0 -- -- 61
2019-04-13 01:00:00 8.7 7 Sudeste 14 Sudeste 0 -- -- 60
2019-04-13 00:00:00 8.6 7 Este 14 Sudeste 0 -- -- 62
2019-04-12 23:00:00 9.3 7 Sudeste 16 Sur 0 -- -- 61
2019-04-12 22:00:00 10.3 6 Sudeste 10 Sudeste 0 -- -- 58
2019-04-12 21:00:00 14.2 4 Este 14 Este 0 -- -- 47
2019-04-12 20:00:00 16.8 7 Norte 23 Norte 0 -- -- 39
2019-04-12 19:00:00 17.3 8 Norte 23 Norte 0 -- -- 40
2019-04-12 18:00:00 17 12 Norte 31 Noroeste 0 -- -- 41
2019-04-12 17:00:00 16.8 10 Noroeste 28 Norte 0 -- -- 41
2019-04-12 16:00:00 16.2 14 Noroeste 28 Norte 0 -- -- 39
2019-04-12 15:00:00 15.6 16 Norte 30 Norte 0 -- -- 41
2019-04-12 14:00:00 15 16 Noroeste 28 Noroeste 0 -- -- 44
2019-04-12 13:00:00 14 11 Noroeste 24 Noroeste 0 -- -- 43
2019-04-12 12:00:00 13.1 13 Noroeste 24 Noroeste 0 -- -- 47
2019-04-12 11:00:00 11.9 6 Noroeste 12 Noroeste 0 -- -- 49
2019-04-12 10:00:00 10.4 2 Sur 9 Sur 0 -- -- 54
2019-04-12 09:00:00 5.3 7 Sudeste 13 Sur 0 -- -- 71
2019-04-12 08:00:00 3.6 9 Sur 16 Sur 0 -- -- 75
2019-04-12 07:00:00 4.8 11 Sur 18 Sur 0 -- -- 68
2019-04-12 06:00:00 4.2 11 Sur 16 Sur 0 -- -- 73
2019-04-12 05:00:00 4.7 8 Sudeste 16 Sur 0 -- -- 70
2019-04-12 04:00:00 4.6 10 Sur 17 Sur 0 -- -- 72
2019-04-12 03:00:00 5.4 9 Sur 16 Sur 0 -- -- 70
2019-04-12 02:00:00 6.1 12 Sur 17 Sur 0 -- -- 64
2019-04-12 01:00:00 6.6 10 Sur 17 Sur 0 -- -- 62
2019-04-12 00:00:00 6.8 5 Sudeste 14 Sur 0 -- -- 61
2019-04-11 23:00:00 7 3 Sudeste 15 Sudeste 0 -- -- 65
2019-04-11 22:00:00 8.4 5 Este 20 Nordeste 0 -- -- 65
2019-04-11 21:00:00 11.5 4 Nordeste 18 Este 0 -- -- 52
2019-04-11 20:00:00 13.3 12 Nordeste 28 Nordeste 0 -- -- 42
2019-04-11 19:00:00 14.3 13 Nordeste 28 Nordeste 0 -- -- 39
2019-04-11 18:00:00 14.5 13 Norte 32 Nordeste 0 -- -- 40
2019-04-11 17:00:00 14.6 14 Norte 28 Norte 0.2 -- -- 44
2019-04-11 16:00:00 14.5 15 Norte 35 Norte 0 -- -- 48
2019-04-11 15:00:00 13.6 19 Noroeste 34 Norte 0 -- -- 51
2019-04-11 14:00:00 12.7 14 Norte 28 Norte 0 -- -- 52
2019-04-11 13:00:00 12.5 12 Norte 23 Norte 0 -- -- 53
2019-04-11 12:00:00 11.4 14 Noroeste 22 Norte 0 -- -- 59
2019-04-11 11:00:00 9.9 4 Noroeste 10 Noroeste 0 -- -- 64
2019-04-11 10:00:00 8.5 0 Calma 9 Sur 0 -- -- 68
2019-04-11 09:00:00 4 6 Sudeste 12 Sur 0 -- -- 86
2019-04-11 08:00:00 3.2 7 Sudeste 12 Sudeste 0 -- -- 87
2019-04-11 07:00:00 2.9 8 Sudeste 13 Sur 0 -- -- 91
2019-04-11 06:00:00 2.8 8 Sudeste 14 Sur 0 -- -- 94
2019-04-11 05:00:00 3 8 Sudeste 12 Sur 0 -- -- 95
2019-04-11 04:00:00 3.1 6 Sudeste 13 Sur 0 -- -- 96
2019-04-11 03:00:00 4 8 Sudeste 12 Sur 0 -- -- 92
2019-04-11 02:00:00 4 8 Sudeste 13 Sur 0 -- -- 93
2019-04-11 01:00:00 4.5 9 Sur 13 Sur 0 -- -- 90
2019-04-11 00:00:00 4.6 5 Sur 15 Sudeste 0 -- -- 93
2019-04-10 23:00:00 5.3 8 Sur 12 Sur 0 -- -- 89
2019-04-10 22:00:00 6.6 7 Sudeste 15 Sur 0.4 -- -- 88
2019-04-10 21:00:00 6.9 6 Este 28 Este 1.2 -- -- 83
2019-04-10 20:00:00 6.6 13 Nordeste 38 Nordeste 1 -- -- 85
2019-04-10 19:00:00 9.9 26 Nordeste 45 Nordeste 0 -- -- 65
2019-04-10 18:00:00 12.1 12 Noroeste 22 Noroeste 0 -- -- 55
2019-04-10 17:00:00 12.3 12 Noroeste 24 Norte 0 -- -- 55
2019-04-10 16:00:00 11.1 7 Noroeste 27 Noroeste 0 -- -- 69
2019-04-10 15:00:00 10.3 4 Noroeste 15 Noroeste 0 -- -- 68
2019-04-10 14:00:00 9.6 4 Noroeste 9 Este 0 -- -- 71
2019-04-10 13:00:00 8.7 4 Nordeste 15 Nordeste 0 -- -- 80
2019-04-10 12:00:00 7.9 5 Norte 13 Nordeste 0 -- -- 80
2019-04-10 11:00:00 7.7 6 Nordeste 13 Este 0 -- -- 79
2019-04-10 10:00:00 6.2 3 Sudeste 6 Sudeste 0.2 -- -- 89
2019-04-10 09:00:00 5.4 3 Sudeste 7 Sur 0 -- -- 97
2019-04-10 08:00:00 5.1 4 Sudeste 8 Sur 0.6 -- -- 96
2019-04-10 07:00:00 5.2 3 Sudeste 7 Sur 0 -- -- 95
2019-04-10 06:00:00 5 5 Sudeste 12 Noroeste 0.4 -- -- 95
2019-04-10 05:00:00 5.7 3 Oeste 9 Sudoeste 0.6 -- -- 89
2019-04-10 04:00:00 5.5 4 Sudeste 6 Este 0 -- -- 94
2019-04-10 03:00:00 5.9 4 Sudeste 8 Este 0.2 -- -- 93
2019-04-10 02:00:00 6.9 0 Calma 14 Oeste 0 -- -- 87
2019-04-10 01:00:00 7.5 4 Oeste 21 Oeste 0 -- -- 77
2019-04-10 00:00:00 7 3 Sudoeste 12 Oeste 0 -- -- 84
2019-04-09 23:00:00 7.2 3 Este 12 Noroeste 0.2 -- -- 90
2019-04-09 22:00:00 8.3 6 Noroeste 15 Noroeste 0.2 -- -- 82
2019-04-09 21:00:00 8.6 3 Sudoeste 7 Noroeste 0 -- -- 79
2019-04-09 20:00:00 9.4 6 Norte 13 Norte 0.4 -- -- 77
2019-04-09 19:00:00 10.3 5 Noroeste 9 Oeste 0 -- -- 74
2019-04-09 18:00:00 10.8 4 Sudeste 17 Sudoeste 0.4 -- -- 71
2019-04-09 17:00:00 10.3 10 Oeste 21 Sudoeste 0 -- -- 70
2019-04-09 16:00:00 10.1 4 Este 15 Nordeste 0.2 -- -- 77
2019-04-09 15:00:00 9.3 4 Norte 17 Oeste 0.2 -- -- 75
2019-04-09 14:00:00 8.9 6 Oeste 18 Oeste 0.2 -- -- 78
2019-04-09 13:00:00 7.3 7 Noroeste 24 Sudoeste 0 -- -- 89
2019-04-09 12:00:00 6.9 13 Sudoeste 33 Oeste 1.6 -- -- 88
2019-04-09 11:00:00 7.1 13 Sudoeste 29 Sudoeste 0.8 -- -- 89
2019-04-09 10:00:00 6.4 3 Noroeste 18 Sudoeste 0.2 -- -- 93
2019-04-09 09:00:00 6.2 6 Oeste 28 Oeste 0 -- -- 88
2019-04-09 08:00:00 6 5 Oeste 30 Sudoeste 0.2 -- -- 90
2019-04-09 07:00:00 6.7 11 Sudoeste 31 Sudoeste 0.2 -- -- 88
2019-04-09 06:00:00 6.2 4 Oeste 15 Sudoeste 0 -- -- 91
2019-04-09 05:00:00 6.3 7 Oeste 23 Oeste 0 -- -- 93
2019-04-09 04:00:00 6.5 5 Oeste 18 Oeste 0 -- -- 91
2019-04-09 03:00:00 6.5 5 Oeste 21 Oeste 0 -- -- 90
2019-04-09 02:00:00 6.5 3 Oeste 16 Sudoeste 0 -- -- 88
2019-04-09 01:00:00 7.2 5 Sudoeste 19 Sudoeste 0 -- -- 87
2019-04-09 00:00:00 7.7 6 Oeste 21 Oeste 0 -- -- 86
2019-04-08 23:00:00 7.8 0 Calma 10 Sudoeste 0 -- -- 83
2019-04-08 22:00:00 7.5 4 Sur 8 Sudeste 0 -- -- 91
2019-04-08 21:00:00 7.9 3 Sudeste 10 Sudeste 0 -- -- 90
2019-04-08 20:00:00 8.7 2 Noroeste 26 Oeste 0.4 -- -- 85
2019-04-08 19:00:00 9.9 14 Oeste 35 Sudoeste 0 -- -- 75
2019-04-08 18:00:00 12.7 15 Oeste 32 Oeste 0 -- -- 55
2019-04-08 17:00:00 13.6 13 Oeste 32 Oeste 0.2 -- -- 49
2019-04-08 16:00:00 12.9 13 Oeste 28 Oeste 0 -- -- 58
2019-04-08 15:00:00 12.4 12 Noroeste 29 Noroeste 0 -- -- 64
2019-04-08 14:00:00 11.4 13 Noroeste 22 Oeste 0 -- -- 59
2019-04-08 13:00:00 10.5 7 Noroeste 17 Oeste 0 -- -- 73
2019-04-08 12:00:00 10.2 9 Noroeste 17 Noroeste 0 -- -- 75
2019-04-08 11:00:00 8.5 5 Noroeste 14 Noroeste 0 -- -- 96
2019-04-08 10:00:00 8.2 4 Noroeste 22 Noroeste 0 -- -- 98
2019-04-08 09:00:00 8.3 0 Calma 14 Sudoeste 0 -- -- 95
2019-04-08 08:00:00 8.5 5 Sudoeste 19 Sudoeste 0 -- -- 93
2019-04-08 07:00:00 9.2 3 Oeste 18 Sudoeste 0 -- -- 92
2019-04-08 06:00:00 9.7 8 Sudoeste 31 Sur 0.8 -- -- 90
2019-04-08 05:00:00 9.9 11 Sudoeste 32 Sudoeste 2 -- -- 89
2019-04-08 04:00:00 8.5 5 Noroeste 13 Norte 0.8 -- -- 95
2019-04-08 03:00:00 8.7 2 Sudeste 10 Sudoeste 0.8 -- -- 94
2019-04-08 02:00:00 9.3 0 Calma 10 Sudoeste 0.4 -- -- 90
2019-04-08 01:00:00 10 6 Sudoeste 21 Sudoeste 0.2 -- -- 81
2019-04-08 00:00:00 9.9 9 Sudoeste 31 Oeste 0 -- -- 85
2019-04-07 23:00:00 10 9 Sudoeste 31 Sudoeste 0 -- -- 84
2019-04-07 22:00:00 8.4 3 Norte 12 Este 0 -- -- 98
2019-04-07 21:00:00 7.8 0 Calma 5 Sudeste 0 -- -- 99
2019-04-07 20:00:00 7.7 2 Norte 5 Nordeste 0.2 -- -- 99
2019-04-07 19:00:00 7.7 0 Calma 15 Noroeste 0.2 -- -- 99
2019-04-07 18:00:00 7.7 7 Noroeste 16 Oeste 0.4 -- -- 97
2019-04-07 17:00:00 8.4 4 Noroeste 20 Oeste 0 -- -- 84
2019-04-07 16:00:00 9.1 8 Oeste 22 Noroeste 0 -- -- 76
2019-04-07 15:00:00 9.1 11 Noroeste 21 Oeste 0 -- -- 76
2019-04-07 14:00:00 8.8 8 Noroeste 15 Noroeste 0 -- -- 79
2019-04-07 13:00:00 7.9 5 Noroeste 13 Noroeste 0 -- -- 81
2019-04-07 12:00:00 6.9 5 Noroeste 8 Noroeste 0 -- -- 83
2019-04-07 11:00:00 6.1 4 Noroeste 7 Noroeste 0 -- -- 92
2019-04-07 10:00:00 5.2 2 Oeste 5 Oeste 0 -- -- 95
2019-04-07 09:00:00 4.5 2 Sur 5 Sudeste 0 -- -- 97
2019-04-07 08:00:00 4 3 Sudeste 5 Sur 0 -- -- 98
2019-04-07 07:00:00 4 0 Calma 3 Noroeste 0.2 -- -- 98
2019-04-07 06:00:00 3.9 0 Calma 7 Oeste 0 -- -- 98
2019-04-07 05:00:00 3.9 3 Oeste 6 Oeste 0.4 -- -- 98
2019-04-07 04:00:00 4.1 0 Calma 8 Oeste 0 -- -- 97
2019-04-07 03:00:00 4 2 Noroeste 7 Noroeste 0.2 -- -- 97
2019-04-07 02:00:00 4.1 2 Noroeste 12 Oeste 0 -- -- 93
2019-04-07 01:00:00 4.3 3 Sudoeste 14 Oeste -- -- -- 93
2019-04-07 00:00:00 4.6 0 Calma 18 Sudoeste 0.4 -- -- 93
2019-04-06 23:00:00 5.4 6 Noroeste 25 Oeste 0 -- -- 86
2019-04-06 22:00:00 5.3 4 Sur 11 Sur 0 -- -- 86
2019-04-06 21:00:00 5.4 2 Sudeste 10 Nordeste 0 -- -- 87
2019-04-06 20:00:00 5.6 5 Nordeste 21 Oeste 0 -- -- 84
2019-04-06 19:00:00 6 11 Oeste 36 Sudoeste 0 -- -- 75
2019-04-06 18:00:00 7.3 15 Sudoeste 39 Sudoeste 0 -- -- 75
2019-04-06 17:00:00 7.2 10 Oeste 31 Sudoeste 0 -- -- 73
2019-04-06 16:00:00 7.3 14 Oeste 27 Oeste 0 -- -- 77
2019-04-06 15:00:00 6.1 6 Noroeste 31 Sur 0.4 -- -- 91
2019-04-06 14:00:00 5.9 9 Oeste 28 Oeste 0 -- -- 81
2019-04-06 13:00:00 5.8 10 Noroeste 27 Sudoeste 0.4 -- -- 85
2019-04-06 12:00:00 4.6 5 Oeste 27 Sudoeste 0 -- -- 89
2019-04-06 11:00:00 4.1 8 Oeste 23 Oeste 0 -- -- 92
2019-04-06 10:00:00 3.3 5 Oeste 23 Sudoeste 0.6 -- -- 99
2019-04-06 09:00:00 3.2 7 Oeste 18 Sudoeste 1.4 -- -- 94
2019-04-06 08:00:00 3.5 3 Sudoeste 19 Sudoeste 0.2 -- -- 96
2019-04-06 07:00:00 3.1 0 Calma 6 Este 0 -- -- 98
2019-04-06 06:00:00 2.6 2 Sudoeste 9 Oeste 0 -- -- 98
2019-04-06 05:00:00 2.6 3 Oeste 7 Oeste 0 -- -- 97
2019-04-06 04:00:00 2.6 0 Calma 4 Sudeste 0 -- -- 97
2019-04-06 03:00:00 2.8 0 Calma 4 Oeste 0 -- -- 97
2019-04-06 02:00:00 2.8 3 Sur 6 Sudoeste 0 -- -- 97
2019-04-06 01:00:00 2.6 4 Sur 7 Sur 0 -- -- 98
2019-04-06 00:00:00 2.7 4 Sur 10 Sudeste 0 -- -- 95
2019-04-05 23:00:00 2.5 4 Sudeste 9 Norte 0.4 -- -- 97
2019-04-05 22:00:00 2.4 5 Este 39 Oeste 2.8 -- -- 95
2019-04-05 21:00:00 4.7 2 Este 29 Sudoeste 1.2 -- -- 93
2019-04-05 20:00:00 5.6 6 Sudoeste 23 Oeste 0.2 -- -- 83
2019-04-05 19:00:00 5.6 5 Este 16 Este 1.2 -- -- 89
2019-04-05 18:00:00 6.2 4 Oeste 16 Nordeste 0.4 -- -- 76
2019-04-05 17:00:00 6.1 4 Este 13 Sudoeste 0.2 -- -- 79
2019-04-05 16:00:00 5.3 4 Norte 17 Nordeste 0.2 -- -- 83
2019-04-05 15:00:00 2.8 5 Oeste 31 Oeste 0.6 -- -- 95
2019-04-05 14:00:00 5.9 3 Oeste 9 Noroeste 0 -- -- 79
2019-04-05 13:00:00 4.6 5 Noroeste 11 Sudeste 0.2 -- -- 89
2019-04-05 12:00:00 1.8 8 Sudeste 26 Oeste 2.4 -- -- 98
2019-04-05 11:00:00 3.6 9 Oeste 27 Oeste 3.4 -- -- 95
2019-04-05 10:00:00 4.8 2 Nordeste 12 Sur 0.4 -- -- 96
2019-04-05 09:00:00 4.5 2 Noroeste 22 Sudoeste 0.6 -- -- 94
2019-04-05 08:00:00 4.8 4 Oeste 21 Sur 0.2 -- -- 94
2019-04-05 07:00:00 5.2 9 Sudoeste 26 Noroeste 0.8 -- -- 90
2019-04-05 06:00:00 5.4 4 Sudoeste 24 Sudeste 0.2 -- -- 86
2019-04-05 05:00:00 5.5 9 Sur 29 Sur 0 -- -- 82
2019-04-05 04:00:00 4.8 10 Sur 28 Sudoeste 0.6 -- -- 87
2019-04-05 03:00:00 3.8 2 Este 8 Sudeste 2.4 -- -- 94
2019-04-05 02:00:00 4.1 0 Calma 9 Este 1.6 -- -- 95
2019-04-05 01:00:00 4.1 3 Este 6 Este 0.8 -- -- 95
2019-04-05 00:00:00 4 0 Calma 18 Oeste 0.8 -- -- 95
2019-04-04 23:00:00 4.5 4 Oeste 23 Oeste 3.2 -- -- 95
2019-04-04 22:00:00 5.9 10 Sudoeste 24 Oeste 1.2 -- -- 85
2019-04-04 21:00:00 9.3 10 Sudoeste 22 Oeste 0 -- -- 42
2019-04-04 20:00:00 10.3 6 Oeste 21 Sudoeste 0 -- -- 39
2019-04-04 19:00:00 10.8 6 Oeste 27 Noroeste 0 -- -- 34
2019-04-04 18:00:00 11.3 12 Noroeste 31 Noroeste 0 -- -- 35
2019-04-04 17:00:00 11.6 12 Oeste 32 Oeste 0 -- -- 38
2019-04-04 16:00:00 11.5 14 Oeste 29 Oeste 0 -- -- 36
2019-04-04 15:00:00 10.7 13 Oeste 31 Oeste 0 -- -- 38
2019-04-04 14:00:00 9.8 10 Noroeste 22 Noroeste 0 -- -- 37
2019-04-04 13:00:00 8.8 7 Noroeste 16 Noroeste 0 -- -- 38
2019-04-04 12:00:00 7.5 4 Oeste 17 Noroeste 0 -- -- 40
2019-04-04 11:00:00 5.5 7 Oeste 14 Oeste 0 -- -- 53
2019-04-04 10:00:00 3.9 0 Calma 6 Noroeste 0 -- -- 57
2019-04-04 09:00:00 -0.4 4 Sudeste 8 Sudeste 0 -- -- 75
2019-04-04 08:00:00 -0.5 6 Sur 10 Sur 0 -- -- 72
2019-04-04 07:00:00 1 3 Sur 14 Sudoeste 0 -- -- 67
2019-04-04 06:00:00 1 4 Sudoeste 15 Sudeste 0 -- -- 68
2019-04-04 05:00:00 0.7 5 Sudeste 10 Este 0 -- -- 71
2019-04-04 04:00:00 3 3 Este 23 Norte 0 -- -- 63
2019-04-04 03:00:00 3.8 6 Norte 21 Norte 0 -- -- 59
2019-04-04 02:00:00 4.3 7 Nordeste 18 Norte 0 -- -- 57
2019-04-04 01:00:00 5 5 Este 19 Nordeste 0 -- -- 53
2019-04-04 00:00:00 5.9 7 Nordeste 29 Nordeste 0 -- -- 50
2019-04-03 23:00:00 6.8 6 Nordeste 23 Nordeste 0 -- -- 52
2019-04-03 22:00:00 7.5 10 Nordeste 24 Nordeste 0 -- -- 50
2019-04-03 21:00:00 9 13 Nordeste 31 Nordeste 0 -- -- 45
2019-04-03 20:00:00 10.8 12 Norte 33 Norte 0 -- -- 41
2019-04-03 19:00:00 11.9 13 Norte 35 Noroeste 0 -- -- 40
2019-04-03 18:00:00 12.2 14 Nordeste 34 Nordeste 0 -- -- 41
2019-04-03 17:00:00 12.7 12 Nordeste 34 Nordeste 0 -- -- 41
2019-04-03 16:00:00 12.7 13 Norte 30 Norte 0 -- -- 42
2019-04-03 15:00:00 11.7 12 Nordeste 39 Norte 0 -- -- 45
2019-04-03 14:00:00 11 16 Norte 35 Norte 0 -- -- 49
2019-04-03 13:00:00 10.8 14 Norte 35 Norte 0 -- -- 53
2019-04-03 12:00:00 9.8 13 Norte 29 Norte 0 -- -- 61
2019-04-03 11:00:00 8.2 14 Norte 26 Norte 0 -- -- 69
2019-04-03 10:00:00 7.5 12 Norte 23 Noroeste 0 -- -- 72
2019-04-03 09:00:00 5.2 4 Sudeste 12 Sur 0 -- -- 85
2019-04-03 08:00:00 4.6 5 Sudeste 14 Sur 0 -- -- 86
2019-04-03 07:00:00 5 10 Sur 13 Sur 0 -- -- 84
2019-04-03 06:00:00 6.1 6 Sudeste 14 Nordeste 0 -- -- 81
2019-04-03 05:00:00 7.1 8 Sudeste 17 Sur 0 -- -- 76
2019-04-03 04:00:00 6.6 7 Sudeste 13 Sur 0 -- -- 78
2019-04-03 03:00:00 7.7 7 Sudeste 14 Sur 0 -- -- 74
2019-04-03 02:00:00 9 4 Sudeste 19 Este 0 -- -- 69
2019-04-03 01:00:00 9.7 8 Este 17 Sudeste 0 -- -- 66
2019-04-03 00:00:00 9.6 8 Sudeste 12 Sudeste 0 -- -- 74
2019-04-02 23:00:00 11.5 5 Sur 9 Sudeste 0 -- -- 67
2019-04-02 22:00:00 12.1 6 Sudeste 14 Noroeste 0 -- -- 66
2019-04-02 21:00:00 15 5 Oeste 14 Noroeste 0 -- -- 55
2019-04-02 20:00:00 15.2 2 Sudeste 16 Noroeste 0 -- -- 55
2019-04-02 19:00:00 16.8 8 Oeste 23 Oeste 0 -- -- 47
2019-04-02 18:00:00 17.3 10 Oeste 25 Oeste 0 -- -- 48
2019-04-02 17:00:00 17.2 14 Oeste 28 Oeste 0 -- -- 49
2019-04-02 16:00:00 17 8 Oeste 21 Oeste 0 -- -- 50
2019-04-02 15:00:00 16.3 12 Oeste 29 Oeste 0 -- -- 48
2019-04-02 14:00:00 15.2 8 Noroeste 17 Noroeste 0 -- -- 53
2019-04-02 13:00:00 14 4 Oeste 15 Noroeste 0 -- -- 52
2019-04-02 12:00:00 12.4 6 Oeste 13 Oeste 0 -- -- 70
2019-04-02 11:00:00 12.3 3 Norte 6 Norte 0 -- -- 72
2019-04-02 10:00:00 9.5 0 Calma 11 Oeste 0 -- -- 86
2019-04-02 09:00:00 8 4 Sudeste 10 Sudeste 0 -- -- 90
2019-04-02 08:00:00 6.4 7 Sudeste 13 Sur 0 -- -- 92
2019-04-02 07:00:00 7.2 7 Sudeste 9 Sur 0 -- -- 90
2019-04-02 06:00:00 7.9 5 Sudeste 10 Sudeste 0 -- -- 92
2019-04-02 05:00:00 7.9 5 Sudeste 6 Este 0 -- -- 93
2019-04-02 04:00:00 8.7 2 Sur 13 Sur 0 -- -- 88
2019-04-02 03:00:00 7.6 7 Sudeste 14 Sur 0 -- -- 91
2019-04-02 02:00:00 7.4 10 Sur 15 Sur 0 -- -- 86
2019-04-02 01:00:00 8 6 Sur 12 Sur 0 -- -- 86
2019-04-02 00:00:00 8.2 6 Sudeste 9 Sudeste 0 -- -- 91
2019-04-01 23:00:00 7.9 6 Sudeste 10 Sudeste 0 -- -- 93
2019-04-01 22:00:00 9 2 Nordeste 13 Sur 0 -- -- 89
2019-04-01 21:00:00 9.8 4 Sudeste 26 Sudeste 1 -- -- 82
2019-04-01 20:00:00 11.5 4 Sur 11 Sudeste 0.4 -- -- 87
2019-04-01 19:00:00 12.5 0 Calma 8 Sudeste 0.4 -- -- 85
2019-04-01 18:00:00 14 3 Noroeste 5 Norte 0.2 -- -- 76
2019-04-01 17:00:00 12.5 3 Nordeste 13 Nordeste 0.2 -- -- 78
2019-04-01 16:00:00 11 9 Este 18 Sudeste 1.6 -- -- 86
2019-04-01 15:00:00 13 5 Sur 12 Sur 0 -- -- 67
2019-04-01 14:00:00 12.6 2 Norte 9 Noroeste 0 -- -- 69
2019-04-01 13:00:00 11.8 6 Noroeste 26 Noroeste 0 -- -- 74
2019-04-01 12:00:00 12.5 12 Oeste 22 Noroeste 0 -- -- 70
2019-04-01 11:00:00 12.2 4 Noroeste 9 Norte 0 -- -- 69
2019-04-01 10:00:00 10.2 4 Noroeste 8 Noroeste 0 -- -- 74
2019-04-01 09:00:00 8.4 0 Calma 8 Sur 0 -- -- 85
2019-04-01 08:00:00 7 5 Sur 12 Sur 0 -- -- 88
2019-04-01 07:00:00 6.2 6 Sur 8 Sur 0 -- -- 88
2019-04-01 06:00:00 6.1 6 Sudeste 10 Sur 0 -- -- 88
2019-04-01 05:00:00 6.5 5 Sudeste 10 Sudeste 0 -- -- 85
2019-04-01 04:00:00 7.3 3 Sudoeste 8 Sur 0 -- -- 81
2019-04-01 03:00:00 8.4 4 Sur 8 Sudeste 0 -- -- 79
2019-04-01 02:00:00 7.2 5 Sudeste 10 Sudeste 0 -- -- 80
2019-04-01 01:00:00 8.7 5 Sudeste 9 Sur 0 -- -- 74
2019-04-01 00:00:00 9.9 4 Sudoeste 12 Sur 0 -- -- 68
2019-03-31 23:00:00 8.7 8 Sur 16 Sur 0 -- -- 72
2019-03-31 22:00:00 9.4 6 Sudeste 13 Sur 0 -- -- 68
2019-03-31 21:00:00 11.4 5 Sudeste 10 Oeste 0 -- -- 63
2019-03-31 20:00:00 14.9 6 Oeste 16 Noroeste 0 -- -- 50
2019-03-31 19:00:00 15.7 6 Oeste 15 Oeste 0 -- -- 47
2019-03-31 18:00:00 15.5 10 Oeste 20 Noroeste 0 -- -- 47
2019-03-31 17:00:00 17.2 8 Nordeste 27 Sudeste 0 -- -- 44
2019-03-31 16:00:00 16.3 15 Sudeste 28 Este 0 -- -- 47
2019-03-31 15:00:00 14 9 Sudeste 23 Sudeste 0 -- -- 60
2019-03-31 14:00:00 13 3 Oeste 10 Oeste 0 -- -- 53
2019-03-31 13:00:00 13.4 4 Noroeste 11 Noroeste 0 -- -- 50
2019-03-31 12:00:00 12.5 7 Noroeste 13 Oeste 0 -- -- 55
2019-03-31 11:00:00 11.4 2 Noroeste 5 Noroeste 0 -- -- 54
2019-03-31 10:00:00 10.8 3 Noroeste 8 Oeste 0 -- -- 57
2019-03-31 09:00:00 7.8 6 Sudeste 9 Sur 0 -- -- 65
2019-03-31 08:00:00 8.6 7 Sudeste 10 Sur 0 -- -- 62
2019-03-31 07:00:00 8.3 4 Sudeste 10 Sur 0 -- -- 63
2019-03-31 06:00:00 8.6 5 Sudeste 9 Sudeste 0 -- -- 61
2019-03-31 05:00:00 8.5 5 Sudeste 11 Sudeste 0 -- -- 60
2019-03-31 03:00:00 10.2 6 Sur 11 Sur 0 -- -- 56
2019-03-31 01:00:00 10.3 8 Sur 11 Sur 0 -- -- 55
2019-03-31 00:00:00 10.7 8 Sur 12 Sudeste 0 -- -- 53
2019-03-30 23:00:00 10.1 9 Sur 13 Sur 0 -- -- 61
2019-03-30 22:00:00 10.1 10 Sur 14 Sur 0 -- -- 58
2019-03-30 21:00:00 11 8 Sur 14 Sur 0 -- -- 58
2019-03-30 20:00:00 14 4 Sur 9 Sur 0 -- -- 49
2019-03-30 19:00:00 15.8 4 Oeste 17 Noroeste 0 -- -- 44
2019-03-30 18:00:00 17.3 8 Noroeste 22 Oeste 0 -- -- 39
2019-03-30 17:00:00 17.3 9 Noroeste 23 Oeste 0 -- -- 40
2019-03-30 16:00:00 17.4 9 Oeste 22 Noroeste 0 -- -- 38
2019-03-30 15:00:00 16.9 11 Noroeste 21 Oeste 0 -- -- 37
2019-03-30 14:00:00 15.8 9 Noroeste 18 Noroeste 0 -- -- 40
2019-03-30 13:00:00 14.4 8 Oeste 17 Noroeste 0 -- -- 41
2019-03-30 12:00:00 13.1 8 Noroeste 15 Noroeste 0 -- -- 44
2019-03-30 11:00:00 12.1 6 Oeste 12 Noroeste 0 -- -- 46
2019-03-30 10:00:00 11.2 6 Noroeste 9 Noroeste 0 -- -- 48
2019-03-30 09:00:00 9.9 2 Sudeste 7 Sur 0 -- -- 49
2019-03-30 08:00:00 5.7 5 Sur 9 Sur 0 -- -- 60
2019-03-30 07:00:00 6.3 6 Sur 12 Sudeste 0 -- -- 55
2019-03-30 06:00:00 7.5 5 Sudeste 8 Sudeste 0 -- -- 52
2019-03-30 05:00:00 9.4 4 Sudoeste 8 Sudoeste 0 -- -- 42
2019-03-30 04:00:00 9.9 0 Calma 10 Sudeste 0 -- -- 42
2019-03-30 03:00:00 9.2 4 Sur 11 Sudeste 0 -- -- 48
2019-03-30 02:00:00 9.7 5 Sur 12 Sur 0 -- -- 43
2019-03-30 01:00:00 10.5 3 Sur 10 Sudeste 0 -- -- 37
2019-03-30 00:00:00 11.5 3 Oeste 12 Sudeste 0 -- -- 37
2019-03-29 23:00:00 10.8 3 Oeste 7 Noroeste 0 -- -- 40
2019-03-29 22:00:00 11.7 2 Norte 11 Sur 0 -- -- 37
2019-03-29 21:00:00 12.4 0 Calma 26 Sudeste 0 -- -- 37
2019-03-29 20:00:00 14 13 Sur 23 Sur 0 -- -- 34
2019-03-29 19:00:00 15.7 12 Sur 31 Sur 0 -- -- 32
2019-03-29 18:00:00 17.3 7 Nordeste 18 Oeste 0 -- -- 32
2019-03-29 17:00:00 17.7 11 Noroeste 22 Oeste 0 -- -- 32
2019-03-29 16:00:00 17.3 10 Noroeste 24 Oeste 0 -- -- 34
2019-03-29 15:00:00 17.1 12 Noroeste 24 Oeste 0 -- -- 37
2019-03-29 14:00:00 16.3 10 Oeste 19 Noroeste 0 -- -- 37
2019-03-29 13:00:00 14.1 10 Noroeste 17 Oeste 0 -- -- 41
2019-03-29 12:00:00 12.8 5 Oeste 15 Noroeste 0 -- -- 45
2019-03-29 11:00:00 11.6 8 Noroeste 15 Noroeste 0 -- -- 46
2019-03-29 10:00:00 11 4 Noroeste 10 Noroeste 0 -- -- 46
2019-03-29 09:00:00 10.5 3 Oeste 11 Sudeste 0 -- -- 41
2019-03-29 08:00:00 6.7 6 Sur 11 Sur 0 -- -- 52
2019-03-29 07:00:00 7.1 5 Sur 10 Sudeste 0 -- -- 45
2019-03-29 06:00:00 8.9 3 Sudeste 10 Este 0 -- -- 41
2019-03-29 05:00:00 8.8 2 Sudeste 8 Este 0 -- -- 41
2019-03-29 04:00:00 12.2 5 Sudeste 30 Sudeste 0 -- -- 32
2019-03-29 03:00:00 12.8 10 Sudeste 24 Sudeste 0 -- -- 30
2019-03-29 02:00:00 11.3 5 Este 15 Sudeste 0 -- -- 32
2019-03-29 01:00:00 12.6 13 Sudeste 24 Sudeste 0 -- -- 32
2019-03-29 00:00:00 12.2 8 Sudeste 21 Sur 0 -- -- 33
2019-03-28 23:00:00 10.4 10 Sur 19 Sudeste 0 -- -- 43
2019-03-28 22:00:00 10 4 Sudeste 11 Sudeste 0 -- -- 46
2019-03-28 21:00:00 10.4 6 Sudeste 10 Sudeste 0 -- -- 46
2019-03-28 20:00:00 12.5 5 Sur 12 Sur 0 -- -- 42
2019-03-28 19:00:00 17 4 Noroeste 15 Noroeste 0 -- -- 31
2019-03-28 18:00:00 17.8 7 Noroeste 19 Oeste 0 -- -- 32
2019-03-28 17:00:00 18 10 Noroeste 23 Oeste 0 -- -- 33
2019-03-28 16:00:00 18 6 Oeste 22 Noroeste 0 -- -- 32
2019-03-28 15:00:00 17.6 9 Oeste 23 Oeste 0 -- -- 32
2019-03-28 14:00:00 16.6 10 Noroeste 18 Noroeste 0 -- -- 34
2019-03-28 13:00:00 15.3 10 Noroeste 19 Noroeste 0 -- -- 37
2019-03-28 12:00:00 14.3 7 Noroeste 14 Oeste 0 -- -- 40
2019-03-28 11:00:00 12.5 6 Noroeste 12 Noroeste 0 -- -- 51
2019-03-28 10:00:00 12.1 4 Noroeste 10 Oeste 0 -- -- 41
2019-03-28 09:00:00 10.3 4 Sudoeste 15 Sur 0 -- -- 48
2019-03-28 08:00:00 6.1 10 Sudeste 16 Sudeste 0 -- -- 59
2019-03-28 07:00:00 5.8 10 Sudeste 15 Sur 0 -- -- 63
2019-03-28 06:00:00 6 10 Sur 16 Sur 0 -- -- 61
2019-03-28 05:00:00 6.3 10 Sur 15 Sur 0 -- -- 62
2019-03-28 04:00:00 6.3 8 Sur 13 Sudeste 0 -- -- 62
2019-03-28 03:00:00 6.9 8 Sur 14 Sur 0 -- -- 62
2019-03-28 02:00:00 6.6 9 Sudeste 15 Sur 0 -- -- 63
2019-03-28 01:00:00 7.3 8 Sudeste 16 Sur 0 -- -- 57
2019-03-28 00:00:00 7.4 8 Sudeste 14 Sur 0 -- -- 55
2019-03-27 23:00:00 9 10 Sur 18 Sur 0 -- -- 54
2019-03-27 22:00:00 8.5 8 Sudeste 13 Sur 0 -- -- 55
2019-03-27 21:00:00 9.6 9 Sudeste 14 Sur 0 -- -- 49
2019-03-27 20:00:00 12.4 5 Sudeste 13 Oeste 0 -- -- 48
2019-03-27 19:00:00 16.4 7 Oeste 24 Oeste 0 -- -- 37
2019-03-27 18:00:00 17.2 14 Oeste 24 Oeste 0 -- -- 35
2019-03-27 17:00:00 18 9 Oeste 21 Oeste 0 -- -- 31
2019-03-27 16:00:00 17.6 9 Noroeste 18 Oeste 0 -- -- 32
2019-03-27 15:00:00 16.8 9 Noroeste 22 Oeste 0 -- -- 34
2019-03-27 14:00:00 15.3 9 Noroeste 22 Oeste 0 -- -- 37
2019-03-27 13:00:00 14.8 8 Noroeste 15 Noroeste 0 -- -- 39
2019-03-27 12:00:00 13.3 6 Noroeste 14 Noroeste 0 -- -- 37
2019-03-27 11:00:00 12 6 Noroeste 12 Noroeste 0 -- -- 41
2019-03-27 10:00:00 10.7 4 Noroeste 8 Norte 0 -- -- 40
2019-03-27 09:00:00 9.4 0 Calma 10 Sur 0 -- -- 49
2019-03-27 08:00:00 5.2 6 Sudeste 13 Sur 0 -- -- 56
2019-03-27 07:00:00 6.2 7 Sur 15 Sur 0 -- -- 48
2019-03-27 06:00:00 7.2 10 Sur 15 Sur 0 -- -- 45
2019-03-27 05:00:00 8.1 6 Sudeste 12 Este 0 -- -- 47
2019-03-27 04:00:00 11.1 6 Este 24 Sudeste 0 -- -- 37
2019-03-27 03:00:00 11.6 9 Sudeste 24 Sudeste 0 -- -- 35
2019-03-27 02:00:00 10.6 4 Oeste 17 Sudeste 0 -- -- 37
2019-03-27 01:00:00 12.2 5 Noroeste 22 Sudeste 0 -- -- 36
2019-03-27 00:00:00 13.6 10 Sudeste 21 Sudeste 0 -- -- 33
2019-03-26 23:00:00 12.4 5 Sur 13 Sudeste 0 -- -- 37
2019-03-26 22:00:00 14.5 6 Sudeste 22 Sudeste 0 -- -- 35
2019-03-26 21:00:00 15.6 7 Sudeste 22 Sudeste 0 -- -- 31
2019-03-26 20:00:00 15.6 6 Sur 10 Este 0 -- -- 39
2019-03-26 19:00:00 19.9 0 Calma 30 Sur 0 -- -- 29
2019-03-26 18:00:00 21.2 6 Sudoeste 28 Noroeste 0 -- -- 28
2019-03-26 17:00:00 20.2 11 Noroeste 28 Norte 0 -- -- 31
2019-03-26 16:00:00 19.7 14 Norte 27 Norte 0 -- -- 33
2019-03-26 15:00:00 18.3 9 Oeste 24 Norte 0 -- -- 35
2019-03-26 14:00:00 16.6 8 Noroeste 18 Norte 0 -- -- 40
2019-03-26 13:00:00 15.4 9 Noroeste 16 Noroeste 0 -- -- 43
2019-03-26 12:00:00 13.2 6 Oeste 18 Oeste 0 -- -- 44
2019-03-26 11:00:00 11.2 8 Oeste 14 Oeste 0 -- -- 48
2019-03-26 10:00:00 8.9 5 Noroeste 10 Oeste 0 -- -- 53
2019-03-26 09:00:00 7.7 0 Calma 6 Sudeste 0 -- -- 62
2019-03-26 08:00:00 4.5 3 Sur 9 Sudeste 0 -- -- 67
2019-03-26 07:00:00 4.8 3 Sudeste 8 Sudeste 0 -- -- 63
2019-03-26 06:00:00 4.7 5 Sudeste 8 Sudeste 0 -- -- 65
2019-03-26 05:00:00 5.1 2 Este 7 Sur 0 -- -- 64
2019-03-26 04:00:00 5.6 2 Sudoeste 8 Este 0 -- -- 63
2019-03-26 03:00:00 6.3 4 Sudeste 9 Este 0 -- -- 60
2019-03-26 02:00:00 6.7 4 Sur 10 Sur 0 -- -- 61
2019-03-26 01:00:00 7.8 3 Sur 13 Sudeste 0 -- -- 55
2019-03-26 00:00:00 7.8 5 Sudeste 13 Sudeste 0 -- -- 54
2019-03-25 23:00:00 8.2 6 Sudeste 10 Sudeste 0 -- -- 53
2019-03-25 22:00:00 11.2 5 Sur 13 Sur 0 -- -- 45
2019-03-25 21:00:00 11.9 6 Sur 30 Norte 0 -- -- 41
2019-03-25 20:00:00 15.2 8 Este 40 Norte 0 -- -- 33
2019-03-25 19:00:00 17.4 21 Nordeste 42 Nordeste 0 -- -- 30
2019-03-25 18:00:00 18.5 20 Nordeste 43 Norte 0 -- -- 33
2019-03-25 17:00:00 19.2 17 Norte 42 Nordeste 0 -- -- 34
2019-03-25 16:00:00 19.1 24 Nordeste 41 Nordeste 0 -- -- 33
2019-03-25 15:00:00 19.2 19 Nordeste 37 Nordeste 0 -- -- 33
2019-03-25 14:00:00 18.7 17 Norte 31 Norte 0 -- -- 38
2019-03-25 13:00:00 17.8 7 Norte 22 Nordeste 0 -- -- 38
2019-03-25 12:00:00 16.5 6 Oeste 16 Noroeste 0 -- -- 41
2019-03-25 11:00:00 15.9 7 Oeste 15 Noroeste 0 -- -- 42
2019-03-25 10:00:00 15.2 3 Noroeste 6 Noroeste 0 -- -- 44
2019-03-25 09:00:00 11.6 4 Sur 12 Sur 0 -- -- 51
2019-03-25 08:00:00 8.6 8 Sur 13 Sur 0 -- -- 58
2019-03-25 07:00:00 9.2 10 Sur 14 Sur 0 -- -- 55
2019-03-25 06:00:00 9.6 5 Sur 10 Sur 0 -- -- 54
2019-03-25 05:00:00 11.7 4 Sudoeste 11 Sur 0 -- -- 46
2019-03-25 04:00:00 11.2 4 Sudeste 15 Sudeste 0 -- -- 49
2019-03-25 03:00:00 10.7 5 Este 14 Sur 0 -- -- 47
2019-03-25 02:00:00 10.8 10 Sur 19 Sur 0 -- -- 49
2019-03-25 01:00:00 9.9 8 Sudeste 14 Sur 0 -- -- 53
2019-03-25 00:00:00 11.8 7 Sudeste 13 Sudeste 0 -- -- 44
2019-03-24 23:00:00 11.3 7 Sudeste 15 Sur 0 -- -- 47
2019-03-24 22:00:00 11.6 9 Sur 15 Sur 0 -- -- 47
2019-03-24 21:00:00 12.6 8 Sudeste 11 Sudeste 0 -- -- 45
2019-03-24 20:00:00 16.2 10 Sudeste 22 Sudeste 0 -- -- 37
2019-03-24 19:00:00 17.9 15 Sudeste 30 Sudeste 0 -- -- 33
2019-03-24 18:00:00 18.9 17 Sudeste 36 Sudeste 0 -- -- 32
2019-03-24 17:00:00 19.7 20 Sudeste 38 Sudeste 0 -- -- 32
2019-03-24 16:00:00 20.1 16 Sudeste 33 Sur 0 -- -- 28
2019-03-24 15:00:00 19.4 13 Sudeste 26 Sur 0 -- -- 27
2019-03-24 14:00:00 19.5 12 Norte 22 Nordeste 0 -- -- 34
2019-03-24 13:00:00 17.7 10 Noroeste 35 Oeste 0 -- -- 36
2019-03-24 12:00:00 17 10 Noroeste 21 Oeste 0 -- -- 39
2019-03-24 11:00:00 16.2 8 Oeste 30 Este 0 -- -- 36
2019-03-24 10:00:00 15.9 12 Este 29 Sudeste 0 -- -- 37
2019-03-24 09:00:00 12 3 Sudoeste 13 Sudeste 0 -- -- 50
2019-03-24 08:00:00 8.7 7 Sudeste 15 Sudeste 0 -- -- 58
2019-03-24 07:00:00 8.6 9 Sudeste 13 Sudeste 0 -- -- 58
2019-03-24 06:00:00 10.2 6 Sudeste 12 Sur 0 -- -- 57
2019-03-24 05:00:00 11 5 Nordeste 14 Nordeste 0 -- -- 54
2019-03-24 04:00:00 9.9 4 Sur 10 Sudeste 0 -- -- 57
2019-03-24 03:00:00 12 6 Sur 14 Sudeste 0 -- -- 51
2019-03-24 02:00:00 11.4 6 Sudeste 22 Sudeste 0 -- -- 56
2019-03-24 01:00:00 13.6 8 Sudeste 22 Sudeste 0 -- -- 48
2019-03-24 00:00:00 14.5 16 Sudeste 40 Sudeste 0 -- -- 45
2019-03-23 23:00:00 14.8 17 Sudeste 32 Sudeste 0 -- -- 44
2019-03-23 22:00:00 12.5 8 Sudeste 18 Sudeste 0 -- -- 50
2019-03-23 21:00:00 15.4 11 Sudeste 24 Sudeste 0 -- -- 41
2019-03-23 20:00:00 14.9 6 Sur 13 Sur 0 -- -- 50
2019-03-23 19:00:00 17.3 4 Noroeste 10 Norte 0 -- -- 41
2019-03-23 18:00:00 17.9 3 Norte 16 Noroeste 0 -- -- 39
2019-03-23 17:00:00 17.2 5 Noroeste 13 Oeste 0 -- -- 39
2019-03-23 16:00:00 17.1 7 Noroeste 15 Oeste 0 -- -- 41
2019-03-23 15:00:00 17 7 Noroeste 13 Noroeste 0 -- -- 41
2019-03-23 14:00:00 16.4 7 Noroeste 14 Oeste 0 -- -- 41
2019-03-23 13:00:00 15.6 6 Oeste 14 Oeste 0 -- -- 42
2019-03-23 12:00:00 15.4 9 Noroeste 14 Noroeste 0 -- -- 44
2019-03-23 11:00:00 14.2 6 Noroeste 12 Oeste 0 -- -- 48
2019-03-23 10:00:00 13.7 5 Oeste 9 Oeste 0 -- -- 44
2019-03-23 09:00:00 10.6 3 Sudeste 12 Sudeste 0 -- -- 55
2019-03-23 08:00:00 7.1 4 Sudeste 16 Sudeste 0 -- -- 63
2019-03-23 07:00:00 6.3 6 Sudeste 12 Sur 0 -- -- 64
2019-03-23 06:00:00 5.9 8 Sudeste 10 Sur 0 -- -- 66
2019-03-23 05:00:00 7.2 5 Sudeste 10 Sudeste 0 -- -- 61
2019-03-23 04:00:00 9.6 5 Sudeste 17 Sudeste 0 -- -- 53
2019-03-23 03:00:00 8.7 5 Sudeste 15 Sudeste 0 -- -- 55
2019-03-23 02:00:00 8.3 6 Sudeste 16 Sudeste 0 -- -- 56
2019-03-23 01:00:00 7.4 7 Sudeste 13 Sudeste 0 -- -- 64
2019-03-23 00:00:00 7.3 9 Sur 13 Sur 0 -- -- 63
2019-03-22 23:00:00 7.7 8 Sur 15 Sur 0 -- -- 60
2019-03-22 22:00:00 8.2 8 Sudeste 17 Sur 0 -- -- 61
2019-03-22 21:00:00 8.9 9 Sur 16 Sur 0 -- -- 61
2019-03-22 20:00:00 11 12 Sur 15 Sur 0 -- -- 54
2019-03-22 19:00:00 15 4 Noroeste 14 Oeste 0 -- -- 42
2019-03-22 18:00:00 15.8 8 Oeste 18 Noroeste 0 -- -- 40
2019-03-22 17:00:00 16.2 10 Noroeste 17 Oeste 0 -- -- 40
2019-03-22 16:00:00 16 10 Noroeste 20 Noroeste 0 -- -- 38
2019-03-22 15:00:00 15.7 9 Noroeste 21 Oeste 0 -- -- 41
2019-03-22 14:00:00 14.6 10 Oeste 18 Noroeste 0 -- -- 42
2019-03-22 13:00:00 13.8 11 Noroeste 18 Noroeste 0 -- -- 43
2019-03-22 12:00:00 12.9 9 Oeste 15 Oeste 0 -- -- 43
2019-03-22 11:00:00 11.7 7 Noroeste 13 Noroeste 0 -- -- 46
2019-03-22 10:00:00 11.1 5 Noroeste 9 Noroeste 0 -- -- 39
2019-03-22 09:00:00 8.2 6 Sur 12 Sur 0 -- -- 56
2019-03-22 08:00:00 5.4 5 Sur 13 Sudeste 0 -- -- 54
2019-03-22 07:00:00 5.6 4 Sudoeste 14 Sudeste 0 -- -- 54
2019-03-22 06:00:00 5.4 6 Sudeste 12 Sur 0 -- -- 57
2019-03-22 05:00:00 5.3 6 Sur 11 Este 0 -- -- 57
2019-03-22 04:00:00 5.5 8 Sudeste 16 Sur 0 -- -- 57
2019-03-22 03:00:00 6.8 9 Sudeste 13 Sudeste 0 -- -- 52
2019-03-22 02:00:00 7.1 7 Sur 13 Sudeste 0 -- -- 55
2019-03-22 01:00:00 6.4 8 Sur 15 Sur 0 -- -- 63
2019-03-22 00:00:00 7.6 7 Sudeste 13 Sur 0 -- -- 57
2019-03-21 23:00:00 10.8 4 Sudeste 18 Este 0 -- -- 44
2019-03-21 22:00:00 11.6 5 Sudeste 12 Sur 0 -- -- 43
2019-03-21 21:00:00 11.9 10 Sur 24 Sur 0 -- -- 42
2019-03-21 20:00:00 12.2 10 Sur 20 Sur 0 -- -- 45
2019-03-21 19:00:00 13.7 8 Noroeste 19 Noroeste 0 -- -- 41
2019-03-21 18:00:00 14.3 8 Oeste 23 Oeste 0 -- -- 40
2019-03-21 17:00:00 14.2 9 Noroeste 22 Noroeste 0 -- -- 40
2019-03-21 16:00:00 14 6 Noroeste 21 Noroeste 0 -- -- 42
2019-03-21 15:00:00 14.3 7 Noroeste 21 Noroeste 0 -- -- 43
2019-03-21 14:00:00 13.2 10 Noroeste 20 Oeste 0 -- -- 45
2019-03-21 13:00:00 12 10 Oeste 17 Oeste 0 -- -- 44
2019-03-21 12:00:00 10.7 9 Noroeste 20 Oeste 0 -- -- 50
2019-03-21 11:00:00 9.7 8 Noroeste 13 Noroeste 0 -- -- 53
2019-03-21 10:00:00 9.1 6 Noroeste 11 Oeste 0 -- -- 53
2019-03-21 09:00:00 7.9 0 Calma 9 Sudeste 0 -- -- 59
2019-03-21 08:00:00 4 6 Sur 11 Sur 0 -- -- 67
2019-03-21 07:00:00 3.9 7 Sur 13 Sur 0 -- -- 66
2019-03-21 06:00:00 3.7 8 Sudeste 15 Sur 0 -- -- 66
2019-03-21 05:00:00 3.6 9 Sudeste 15 Sur 0 -- -- 67
2019-03-21 04:00:00 4.2 9 Sudeste 13 Sur 0 -- -- 64
2019-03-21 03:00:00 4.9 8 Sudeste 13 Sur 0 -- -- 63
2019-03-21 02:00:00 4.7 6 Sudeste 10 Sudeste 0 -- -- 63
2019-03-21 01:00:00 5 6 Sudeste 11 Sur 0 -- -- 63
2019-03-21 00:00:00 5.8 8 Sur 12 Sur 0 -- -- 60